• Join FlightAware (Why Join?)
  • Login
  • US Flag 
Rudolph Flight #1: Scheduled 
11:56PM EST


 

Airport Tracker/Info


-or-


 

Live Flight TrackerFlight Track Log ✈ SWA2702 ✈ 13-Apr-2013 ✈ KHOU - KMAF

Flight Track Log - Related Links

Times and Time Zones

All times are in EDT time to prevent confusion due to time zone crossing. See the SWA2702 flight status page for this flight to view local times or setup timezone preferences in your user account.

Time Position Orientation Groundspeed Altitude Reporting Facility
EDT Latitude Longitude Course Direction KTS MPH feet Rate Location/Type
09:24PM 29.6819 -95.2692 North 201 231 1,600  Level Houston Center
09:25PM 29.7089 -95.3078 309° West 238 274 3,200 2,400 Climbing Houston Center
09:25PM 29.7214 -95.3339 299° West 257 296 4,000 2,520 Climbing Houston Center
09:26PM 29.7372 -95.3872 289° West 276 318 5,800 3,360 Climbing Houston Center
09:26PM 29.7461 -95.4200 287° West 293 337 7,500 3,600 Climbing Houston Center
09:27PM 29.7586 -95.4742 285° West 285 328 9,500 2,700 Climbing Houston Center
09:28PM 29.7817 -95.5719 285° West 312 359 12,000 2,940 Climbing Houston Center
09:29PM 29.8092 -95.6767 287° West 339 390 15,500 2,700 Climbing Houston Center
09:30PM 29.8339 -95.7836 285° West 347 399 17,600 2,400 Climbing Houston Center
09:31PM 29.8617 -95.8975 286° West 369 425 20,400 2,400 Climbing Houston Center
09:32PM 29.8914 -96.0197 286° West 377 434 22,500 2,040 Climbing Houston Center
09:33PM 29.9194 -96.1392 285° West 387 445 24,600 1,920 Climbing Houston Center
09:34PM 29.9414 -96.2617 282° West 391 450 26,400 1,740 Climbing Houston Center
09:35PM 29.9461 -96.3861 273° West 391 450 28,200 1,440 Climbing Houston Center
09:36PM 29.9569 -96.5128 276° West 399 459 29,400 1,560 Climbing Houston Center
09:37PM 29.9864 -96.6389 285° West 409 471 31,400 1,980 Climbing Houston Center
09:38PM 30.0397 -96.7789 294° West 399 459 33,500 1,680 Climbing Houston Center
09:39PM 30.0839 -96.8931 294° West 393 452 34,900 1,260 Climbing Houston Center
09:40PM 30.1228 -96.9969 293° West 386 444 36,100 540 Climbing Houston Center
09:41PM 30.1656 -97.1100 294° West 380 437 36,100  Level Houston Center
09:42PM 30.2083 -97.2247 293° West 383 441 36,100  Level Houston Center
09:43PM 30.2528 -97.3417 294° West 386 444 36,100  Level Houston Center
09:44PM 30.2944 -97.4564 293° West 390 449 36,100  Level Houston Center
09:45PM 30.3389 -97.5756 293° West 395 455 36,100  Level Houston Center
09:46PM 30.3822 -97.6922 293° West 392 451 36,100  Level Houston Center
09:47PM 30.4250 -97.8094 293° West 391 450 36,100  Level Houston Center
09:48PM 30.4686 -97.9281 293° West 394 453 36,100  Level Houston Center
09:49PM 30.5114 -98.0461 293° West 392 451 36,100  Level Houston Center
09:50PM 30.5556 -98.1667 293° West 399 459 36,100  Level Houston Center
09:51PM 30.6003 -98.2883 293° West 403 464 36,100  Level Houston Center
09:52PM 30.6453 -98.4103 293° West 405 466 36,100  Level Houston Center
09:53PM 30.6889 -98.5342 292° West 409 471 36,100  Level Houston Center
09:54PM 30.7339 -98.6589 293° West 412 474 36,100  Level Houston Center
09:55PM 30.7794 -98.7819 293° West 411 473 36,100  Level Houston Center
09:56PM 30.8219 -98.9033 292° West 404 465 36,100  Level Houston Center
09:57PM 30.8644 -99.0214 293° West 397 457 36,100  Level Houston Center
09:58PM 30.9058 -99.1400 292° West 393 452 36,100 -60 Level Houston Center
09:59PM 30.9450 -99.2528 292° West 382 440 36,000  Descending Houston Center
10:00PM 30.9869 -99.3675 293° West 384 442 36,100  Climbing Houston Center
10:01PM 31.0333 -99.5036 292° West 378 435 36,000  Descending Houston Center
10:02PM 31.0747 -99.6206 292° West 389 448 36,100  Climbing Houston Center
10:03PM 31.1153 -99.7372 292° West 389 448 36,100  Level Houston Center
10:04PM 31.1583 -99.8583 293° West 400 460 36,100  Level Houston Center
10:05PM 31.1997 -99.9789 292° West 402 463 36,100 -60 Level Houston Center
10:06PM 31.2417 -100.0967 293° West 396 456 36,000  Descending Houston Center
10:07PM 31.2836 -100.2208 292° West 410 472 36,100  Climbing Houston Center
10:08PM 31.3250 -100.3414 292° West 402 463 36,100  Level Houston Center
10:09PM 31.3528 -100.4200 292° West 404 465 36,100  Level Fort Worth Center
10:10PM 31.4000 -100.5383 295° West 404 465 36,100 -60 Level Fort Worth Center
10:11PM 31.4431 -100.6444 295° West 397 457 36,000 -1,140 Descending Fort Worth Center
10:12PM 31.4925 -100.7581 297° West 397 457 33,900 -2,700 Descending Fort Worth Center
10:13PM 31.5414 -100.8769 296° West 397 457 30,700 -3,000 Descending Fort Worth Center
10:14PM 31.5922 -100.9936 297° West 397 457 27,900 -2,640 Descending Fort Worth Center
10:15PM 31.6453 -101.1103 298° West 397 457 25,500 -2,400 Descending Fort Worth Center
10:16PM 31.6881 -101.2169 295° West 386 444 23,100 -2,340 Descending Fort Worth Center
10:17PM 31.7328 -101.3214 297° West 373 429 20,900 -2,280 Descending Fort Worth Center
10:18PM 31.7775 -101.4258 297° West 366 421 18,600 -2,400 Descending Fort Worth Center
10:19PM 31.8203 -101.5281 296° West 360 414 16,200 -2,340 Descending Fort Worth Center
10:20PM 31.8628 -101.6278 297° West 348 400 14,000 -2,100 Descending Fort Worth Center
10:21PM 31.9014 -101.7225 296° West 337 388 12,000 -1,920 Descending Fort Worth Center
10:22PM 31.9400 -101.8125 297° West 327 376 10,200 -1,500 Descending Fort Worth Center
10:23PM 31.9767 -101.8950 298° West 306 352 9,000 -1,440 Descending Fort Worth Center
10:24PM 32.0158 -101.9728 301° West 289 333 7,400 -1,560 Descending Fort Worth Center
10:25PM 32.0525 -102.0481 300° West 275 316 5,900 -1,260 Descending Fort Worth Center
10:26PM 32.0600 -102.1269 276° West 260 299 4,900 -720 Descending Fort Worth Center
10:27PM 32.0492 -102.1950 259° West 230 265 4,500 -540 Descending Fort Worth Center
10:28PM 32.0131 -102.2128 203° Southwest 151 174 3,900 -660 Descending Fort Worth Center
10:29PM 31.9797 -102.2086 174° South 123 142 3,200 -480 Descending Fort Worth Center
10:30PM 31.9458 -102.2214 198° South 118 136 3,000 -240 Descending Fort Worth Center